Terminal Aerodrome Forecast
Issued by NWS Topeka, KS

Home | Current Version | Previous Version | Graphics & Text | Print | Product List | Glossary On
Versions: 1 2 3 4 5 6 7 8 9 10 11 12 13 14
000
FTUS43 KTOP 200500
TAFTOP
TAF
KTOP 200520Z 2006/2106 19004KT P6SM SCT300 WS009/22035KT
     FM201400 19010KT P6SM SCT300
     FM201800 19013G20KT P6SM SCT050
     FM210000 18011KT P6SM SCT300=

USA.gov is the U.S. government's official web portal to all federal, state and local government web resources and services.